Time;durP1;ratioP1;P1;durP2;ratioP2;P2;SDS_P1;SDS_P2;PMS_P1;PMS_P2;Temp;Humidity;BMP_temperature;BMP_pressure;BME280_temperature;BME280_humidity;BME280_pressure;Samples;Min_cycle;Max_cycle;Signal;HPM_P1;HPM_P2
2023/06/30 00:02:17;;;;;;;8.70;7.90;;;18.60;99.90;;;;;;5024576;28;20221;-78
2023/06/30 00:04:47;;;;;;;9.70;8.75;;;18.80;99.90;;;;;;5001237;28;20210;-77
2023/06/30 00:07:15;;;;;;;7.18;6.57;;;18.80;99.90;;;;;;5030598;28;20218;-77
2023/06/30 00:09:43;;;;;;;4.68;3.92;;;18.70;99.90;;;;;;5012544;28;20204;-77
2023/06/30 00:12:12;;;;;;;4.22;3.83;;;18.40;99.90;;;;;;5012967;28;20226;-77
2023/06/30 00:14:39;;;;;;;2.90;2.33;;;18.40;99.90;;;;;;5016497;28;20195;-77
2023/06/30 00:17:06;;;;;;;3.28;2.30;;;18.30;99.90;;;;;;5014550;28;20580;-77
2023/06/30 00:19:58;;;;;;;2.47;2.00;;;18.30;99.90;;;;;;5040427;28;20217;-78
2023/06/30 00:22:26;;;;;;;2.33;1.70;;;18.40;99.90;;;;;;5029610;28;20221;-77
2023/06/30 00:24:55;;;;;;;1.90;1.70;;;18.30;99.90;;;;;;5032924;28;20194;-77
2023/06/30 00:27:24;;;;;;;1.90;1.27;;;18.40;99.90;;;;;;5015332;28;20223;-77
2023/06/30 00:29:52;;;;;;;2.35;1.73;;;18.40;99.90;;;;;;5029143;28;20206;-77
2023/06/30 00:32:20;;;;;;;2.65;1.20;;;18.30;99.90;;;;;;5027648;28;20214;-77
2023/06/30 00:34:48;;;;;;;1.60;1.25;;;18.40;99.90;;;;;;5028472;28;20195;-77
2023/06/30 00:37:16;;;;;;;1.65;1.30;;;18.40;99.90;;;;;;5025468;28;20188;-78
2023/06/30 00:39:44;;;;;;;1.75;1.30;;;18.30;99.90;;;;;;5019287;28;20205;-77
2023/06/30 00:42:11;;;;;;;3.08;1.40;;;18.30;99.90;;;;;;5029548;28;20222;-77
2023/06/30 00:44:40;;;;;;;3.95;1.50;;;18.10;99.90;;;;;;5030723;28;20207;-77
2023/06/30 00:47:07;;;;;;;3.75;1.40;;;18.10;99.90;;;;;;5016383;28;20217;-77
2023/06/30 00:49:38;;;;;;;2.30;1.60;;;18.10;99.90;;;;;;5012748;28;20677;-77
2023/06/30 00:52:06;;;;;;;2.55;1.50;;;18.20;99.90;;;;;;5014114;28;20222;-77
2023/06/30 00:54:34;;;;;;;1.75;1.38;;;18.20;99.90;;;;;;5030955;28;20194;-78
2023/06/30 00:57:06;;;;;;;2.10;1.58;;;18.30;99.90;;;;;;5031000;28;20665;-78
2023/06/30 00:59:34;;;;;;;3.25;1.83;;;18.20;99.90;;;;;;5033543;28;20215;-77
2023/06/30 01:02:10;;;;;;;2.38;1.70;;;18.10;99.90;;;;;;5013666;28;20215;-77
2023/06/30 01:04:47;;;;;;;1.88;1.58;;;18.20;99.90;;;;;;5028896;28;20241;-77
2023/06/30 01:07:23;;;;;;;1.95;1.33;;;18.30;99.90;;;;;;5026340;28;20215;-76
2023/06/30 01:09:55;;;;;;;3.70;2.10;;;18.40;99.90;;;;;;5009939;28;20205;-76
2023/06/30 01:12:24;;;;;;;3.28;2.38;;;18.30;99.90;;;;;;5027850;28;20222;-76
2023/06/30 01:14:53;;;;;;;2.33;1.60;;;18.10;99.90;;;;;;5029818;28;20201;-80
2023/06/30 01:17:24;;;;;;;3.05;2.30;;;18.20;99.90;;;;;;5012298;28;20653;-76
2023/06/30 01:19:55;;;;;;;1.75;1.52;;;18.10;99.90;;;;;;5024933;28;20203;-77
2023/06/30 01:22:26;;;;;;;4.82;2.13;;;17.90;99.90;;;;;;5028195;28;20215;-76
2023/06/30 01:24:57;;;;;;;3.53;1.92;;;17.90;99.90;;;;;;5035667;28;20210;-76
2023/06/30 01:27:29;;;;;;;1.80;1.70;;;18.00;99.90;;;;;;5028617;28;20218;-76
2023/06/30 01:29:56;;;;;;;3.97;2.00;;;18.00;99.90;;;;;;5015387;28;20207;-76
2023/06/30 01:32:26;;;;;;;2.63;1.90;;;17.80;99.90;;;;;;5019168;28;20230;-76
2023/06/30 01:34:53;;;;;;;4.63;2.08;;;17.90;99.90;;;;;;5027692;28;20195;-76
2023/06/30 01:37:21;;;;;;;6.07;2.78;;;17.90;99.90;;;;;;5025068;28;20226;-76
2023/06/30 01:39:50;;;;;;;4.55;2.38;;;18.00;99.90;;;;;;5021722;28;20199;-77
2023/06/30 01:42:18;;;;;;;2.45;2.25;;;17.80;99.90;;;;;;5026632;28;20215;-76
2023/06/30 01:44:47;;;;;;;3.88;2.80;;;17.90;99.90;;;;;;5029766;28;20789;-77
2023/06/30 01:47:15;;;;;;;3.85;2.28;;;18.00;99.90;;;;;;5029534;28;20214;-77
2023/06/30 01:49:45;;;;;;;5.43;2.80;;;18.10;99.90;;;;;;5036386;28;20199;-76
2023/06/30 01:52:13;;;;;;;4.30;2.78;;;18.00;99.90;;;;;;5033237;28;20588;-76
2023/06/30 01:54:40;;;;;;;4.65;3.58;;;18.00;99.90;;;;;;5018264;28;20214;-76
2023/06/30 01:57:07;;;;;;;5.13;3.17;;;17.80;99.90;;;;;;5018482;28;20195;-76
2023/06/30 01:59:35;;;;;;;4.25;3.20;;;17.80;99.90;;;;;;5043963;28;20206;-77
2023/06/30 02:02:02;;;;;;;3.70;3.38;;;17.80;99.90;;;;;;5020328;28;20237;-76
2023/06/30 02:04:30;;;;;;;6.35;3.85;;;17.80;99.90;;;;;;5018936;28;20200;-76
2023/06/30 02:06:58;;;;;;;4.25;3.63;;;17.70;99.90;;;;;;5025825;28;20199;-76
2023/06/30 02:09:26;;;;;;;4.90;3.60;;;17.50;99.90;;;;;;5001477;28;20284;-77
2023/06/30 02:11:53;;;;;;;5.28;3.88;;;17.60;99.90;;;;;;5016981;28;20229;-78
2023/06/30 02:14:21;;;;;;;6.43;3.78;;;17.60;99.90;;;;;;5034300;28;20203;-76
2023/06/30 02:16:48;;;;;;;4.85;3.72;;;17.50;99.90;;;;;;5032614;28;20206;-76
2023/06/30 02:19:17;;;;;;;4.72;3.85;;;17.60;99.90;;;;;;5013747;28;20638;-76
2023/06/30 02:21:45;;;;;;;5.18;3.95;;;17.60;99.90;;;;;;5013848;28;20215;-76
2023/06/30 02:24:14;;;;;;;7.32;4.00;;;17.50;99.90;;;;;;5027441;28;20195;-76
2023/06/30 02:26:41;;;;;;;5.18;4.25;;;17.50;99.90;;;;;;5006146;28;20198;-76
2023/06/30 02:29:08;;;;;;;4.40;4.00;;;17.50;99.90;;;;;;5032231;28;20206;-77
2023/06/30 02:31:36;;;;;;;4.13;3.72;;;17.60;99.90;;;;;;5038681;28;20203;-76
2023/06/30 02:34:03;;;;;;;5.22;3.92;;;17.70;99.90;;;;;;5037056;28;20245;-76
2023/06/30 02:36:31;;;;;;;4.90;4.18;;;17.60;99.90;;;;;;5029488;28;20198;-76
2023/06/30 02:38:58;;;;;;;6.93;4.00;;;17.60;99.90;;;;;;5037967;28;20198;-76
2023/06/30 02:41:27;;;;;;;8.27;4.07;;;17.60;99.90;;;;;;5022738;28;20198;-76
2023/06/30 02:43:57;;;;;;;4.55;3.47;;;17.50;99.90;;;;;;5037586;28;20219;-76
2023/06/30 02:46:25;;;;;;;8.57;4.38;;;17.70;99.90;;;;;;5041808;28;20554;-76
2023/06/30 02:48:52;;;;;;;5.13;4.63;;;17.50;99.90;;;;;;5043785;28;20226;-76
2023/06/30 02:51:20;;;;;;;5.80;3.95;;;17.50;99.90;;;;;;5034293;28;20195;-77
2023/06/30 02:53:48;;;;;;;6.22;4.43;;;17.50;99.90;;;;;;5018333;28;20225;-76
2023/06/30 02:56:15;;;;;;;7.10;4.10;;;17.40;99.90;;;;;;5021032;28;20204;-76
2023/06/30 02:58:44;;;;;;;5.82;3.75;;;17.40;99.90;;;;;;5017197;28;20555;-76
2023/06/30 03:01:12;;;;;;;6.88;4.07;;;17.40;99.90;;;;;;5025659;28;20206;-76
2023/06/30 03:03:42;;;;;;;5.57;3.90;;;17.30;99.90;;;;;;5032332;28;20222;-77
2023/06/30 03:06:10;;;;;;;5.78;3.67;;;17.40;99.90;;;;;;5035791;28;20195;-76
2023/06/30 03:08:39;;;;;;;5.35;4.22;;;17.40;99.90;;;;;;5045985;28;20221;-76
2023/06/30 03:11:11;;;;;;;4.50;3.97;;;17.40;99.90;;;;;;5032265;28;20202;-76
2023/06/30 03:13:38;;;;;;;8.13;3.80;;;17.30;99.90;;;;;;5028306;28;20223;-76
2023/06/30 03:16:08;;;;;;;5.93;4.07;;;17.30;99.90;;;;;;5026079;28;20203;-76
2023/06/30 03:18:36;;;;;;;4.22;3.78;;;17.30;99.90;;;;;;5025019;28;20202;-76
2023/06/30 03:21:04;;;;;;;6.13;3.63;;;17.30;99.90;;;;;;5014114;28;20203;-76
2023/06/30 03:23:34;;;;;;;6.18;4.10;;;17.40;99.90;;;;;;5031115;28;20222;-76
2023/06/30 03:26:02;;;;;;;5.50;3.40;;;17.30;99.90;;;;;;5030456;28;20192;-76
2023/06/30 03:28:30;;;;;;;10.15;3.90;;;17.30;99.90;;;;;;5025782;28;20217;-76
2023/06/30 03:30:57;;;;;;;6.00;3.70;;;17.30;99.90;;;;;;5020805;28;20195;-77
2023/06/30 03:33:26;;;;;;;5.32;3.53;;;17.30;99.90;;;;;;5031632;28;20230;-76
2023/06/30 03:35:54;;;;;;;8.32;3.80;;;17.20;99.90;;;;;;5013154;28;20212;-76
2023/06/30 03:38:21;;;;;;;6.25;3.40;;;17.10;99.90;;;;;;5023936;28;20192;-76
2023/06/30 03:40:49;;;;;;;7.63;3.40;;;17.20;99.90;;;;;;5046429;28;20191;-79
2023/06/30 03:43:20;;;;;;;6.07;3.45;;;17.20;99.90;;;;;;5016953;28;20234;-76
2023/06/30 03:45:48;;;;;;;4.97;3.35;;;17.30;99.90;;;;;;5018367;28;20202;-76
2023/06/30 03:48:16;;;;;;;7.25;3.85;;;17.20;99.90;;;;;;5013811;28;20215;-77
2023/06/30 03:50:45;;;;;;;6.47;3.50;;;17.20;99.90;;;;;;5024575;28;20206;-76
2023/06/30 03:53:12;;;;;;;7.15;3.58;;;17.20;99.90;;;;;;5031030;28;20215;-76
2023/06/30 03:55:39;;;;;;;4.63;3.47;;;17.20;99.90;;;;;;5028181;28;20217;-76
2023/06/30 03:58:07;;;;;;;6.15;3.92;;;17.30;99.90;;;;;;5016052;28;20191;-77
2023/06/30 04:00:34;;;;;;;5.78;3.78;;;17.30;99.90;;;;;;5031554;28;20211;-76
2023/06/30 04:03:02;;;;;;;7.18;3.63;;;17.30;99.90;;;;;;5029474;28;20712;-76
2023/06/30 04:05:29;;;;;;;7.18;3.13;;;17.20;99.90;;;;;;5023643;28;20210;-76
2023/06/30 04:07:58;;;;;;;7.35;2.92;;;17.20;99.90;;;;;;5008717;28;20571;-76
2023/06/30 04:10:25;;;;;;;6.28;3.03;;;17.40;99.90;;;;;;5034811;28;20198;-78
2023/06/30 04:12:53;;;;;;;6.05;3.88;;;17.50;99.90;;;;;;5014252;28;20227;-76
2023/06/30 04:15:21;;;;;;;4.85;2.90;;;17.50;99.90;;;;;;5022051;28;20199;-78
2023/06/30 04:17:48;;;;;;;6.38;3.28;;;17.30;99.90;;;;;;5036733;28;20175;-76
2023/06/30 04:20:16;;;;;;;5.47;3.33;;;17.30;99.90;;;;;;5025372;28;20210;-77
2023/06/30 04:22:43;;;;;;;6.93;3.90;;;17.20;99.90;;;;;;5018957;28;20558;-76
2023/06/30 04:25:30;;;;;;;5.90;3.20;;;17.10;99.90;;;;;;5015140;28;20205;-77
2023/06/30 04:27:58;;;;;;;8.82;3.40;;;17.00;99.90;;;;;;5035410;28;20202;-78
2023/06/30 04:30:25;;;;;;;5.63;3.50;;;17.00;99.90;;;;;;5029742;28;20195;-77
2023/06/30 04:32:53;;;;;;;10.93;3.53;;;17.10;99.90;;;;;;5036114;28;20217;-76
2023/06/30 04:35:25;;;;;;;6.55;3.38;;;17.10;99.90;;;;;;5014861;28;20541;-76
2023/06/30 04:37:52;;;;;;;3.47;2.80;;;17.10;99.90;;;;;;5015697;28;20198;-76
2023/06/30 04:40:20;;;;;;;6.43;2.80;;;17.20;99.90;;;;;;5015976;28;20215;-76
2023/06/30 04:42:48;;;;;;;7.22;3.70;;;17.10;99.90;;;;;;5011630;28;20222;-76
2023/06/30 04:45:16;;;;;;;6.38;3.67;;;17.10;99.90;;;;;;5024045;28;20203;-76
2023/06/30 04:47:44;;;;;;;7.55;3.13;;;17.10;99.90;;;;;;5026818;28;20203;-76
2023/06/30 04:50:11;;;;;;;7.70;3.33;;;17.10;99.90;;;;;;5008023;28;20219;-76
2023/06/30 04:52:38;;;;;;;7.10;2.97;;;17.10;99.90;;;;;;5021539;28;20223;-76
2023/06/30 04:55:08;;;;;;;5.68;2.92;;;16.90;99.90;;;;;;5008210;28;20207;-78
2023/06/30 04:57:36;;;;;;;5.82;3.08;;;16.90;99.90;;;;;;5016261;28;20225;-76
2023/06/30 05:00:06;;;;;;;6.05;3.08;;;17.00;99.90;;;;;;5020289;28;20187;-77
2023/06/30 05:02:34;;;;;;;6.80;2.97;;;17.00;99.90;;;;;;5030303;28;20230;-77
2023/06/30 05:05:01;;;;;;;4.53;2.83;;;17.10;99.90;;;;;;5025833;28;20207;-76
2023/06/30 05:07:28;;;;;;;3.83;2.70;;;17.00;99.90;;;;;;5021633;28;20202;-76
2023/06/30 05:09:56;;;;;;;5.40;2.65;;;17.00;99.90;;;;;;5026257;28;20705;-76
2023/06/30 05:12:23;;;;;;;7.95;2.75;;;17.00;99.90;;;;;;5010631;28;20226;-76
2023/06/30 05:14:51;;;;;;;4.85;2.28;;;16.90;99.90;;;;;;5026487;28;20211;-76
2023/06/30 05:17:19;;;;;;;4.25;2.58;;;17.10;99.90;;;;;;5029451;28;20214;-77
2023/06/30 05:19:47;;;;;;;6.03;2.78;;;17.10;99.90;;;;;;5030090;28;20210;-76
2023/06/30 05:22:14;;;;;;;6.28;3.25;;;17.10;99.90;;;;;;5024047;28;20227;-77
2023/06/30 05:24:42;;;;;;;4.70;3.08;;;17.10;99.90;;;;;;5027890;28;20684;-76
2023/06/30 05:27:09;;;;;;;6.50;2.97;;;17.10;99.90;;;;;;5020664;28;20218;-76
2023/06/30 05:29:37;;;;;;;4.40;3.10;;;17.10;99.90;;;;;;5003871;28;20689;-76
2023/06/30 05:32:05;;;;;;;6.75;3.17;;;17.20;99.90;;;;;;5011037;28;20723;-76
2023/06/30 05:34:34;;;;;;;4.70;2.58;;;17.10;99.90;;;;;;5030749;28;20211;-78
2023/06/30 05:37:02;;;;;;;4.68;2.63;;;17.00;99.90;;;;;;5032034;28;20195;-78
2023/06/30 05:39:29;;;;;;;6.35;2.58;;;17.00;99.90;;;;;;5012529;28;20203;-76
2023/06/30 05:41:57;;;;;;;3.35;2.53;;;16.90;99.90;;;;;;5020825;28;20222;-77
2023/06/30 05:44:25;;;;;;;4.43;2.10;;;17.00;99.90;;;;;;5014126;28;20198;-76
2023/06/30 05:46:52;;;;;;;6.32;2.47;;;17.00;99.90;;;;;;5030475;28;20203;-76
2023/06/30 05:49:19;;;;;;;9.73;2.42;;;17.00;99.90;;;;;;5026562;28;20224;-76
2023/06/30 05:51:49;;;;;;;5.05;2.42;;;17.20;99.90;;;;;;5021395;28;20202;-76
2023/06/30 05:54:18;;;;;;;4.60;2.08;;;17.20;99.90;;;;;;5036314;28;20203;-76
2023/06/30 05:56:48;;;;;;;5.57;2.35;;;17.00;99.90;;;;;;5013208;28;20200;-76
2023/06/30 05:59:15;;;;;;;4.53;2.10;;;17.00;99.90;;;;;;5017229;28;20203;-77
2023/06/30 06:01:43;;;;;;;3.40;1.95;;;17.10;99.90;;;;;;5024196;28;20198;-76
2023/06/30 06:04:11;;;;;;;3.97;1.85;;;17.00;99.90;;;;;;5018865;28;20200;-76
2023/06/30 06:06:39;;;;;;;6.85;1.98;;;17.00;99.90;;;;;;5033024;28;20230;-76
2023/06/30 06:09:07;;;;;;;7.07;2.10;;;17.00;99.90;;;;;;5015698;28;20199;-79
2023/06/30 06:11:35;;;;;;;4.60;2.38;;;17.10;99.90;;;;;;5011527;28;20214;-76
2023/06/30 06:14:02;;;;;;;4.57;2.15;;;17.00;99.90;;;;;;5017420;28;20206;-76
2023/06/30 06:16:30;;;;;;;9.88;2.42;;;17.00;99.90;;;;;;5033493;28;20203;-76
2023/06/30 06:18:57;;;;;;;6.05;1.90;;;17.20;99.90;;;;;;5029561;28;20198;-78
2023/06/30 06:21:27;;;;;;;5.15;2.33;;;17.00;99.90;;;;;;5034098;28;20195;-75
2023/06/30 06:23:54;;;;;;;4.13;1.63;;;16.90;99.90;;;;;;5018127;28;20218;-76
2023/06/30 06:26:23;;;;;;;3.45;1.85;;;17.00;99.90;;;;;;5020397;28;20214;-76
2023/06/30 06:28:51;;;;;;;2.95;1.42;;;17.00;99.90;;;;;;5012694;28;20206;-76
2023/06/30 06:31:18;;;;;;;4.78;1.77;;;17.20;99.90;;;;;;5031159;28;20969;-77
2023/06/30 06:33:46;;;;;;;4.45;1.92;;;17.30;99.90;;;;;;5030602;28;20219;-77
2023/06/30 06:36:13;;;;;;;4.97;1.88;;;17.20;99.90;;;;;;5019721;28;20199;-77
2023/06/30 06:38:41;;;;;;;3.17;1.80;;;17.10;99.90;;;;;;5039672;28;20210;-76
2023/06/30 06:41:08;;;;;;;3.92;1.70;;;17.10;99.90;;;;;;5013289;28;20205;-77
2023/06/30 06:43:37;;;;;;;4.28;2.22;;;17.10;99.90;;;;;;5022594;28;20215;-77
2023/06/30 06:46:04;;;;;;;2.58;1.75;;;17.40;99.90;;;;;;5019159;28;20198;-77
2023/06/30 06:48:32;;;;;;;3.00;2.20;;;17.60;99.90;;;;;;5038544;28;20218;-77
2023/06/30 06:51:01;;;;;;;5.80;2.58;;;17.40;99.90;;;;;;5027432;28;20226;-77
2023/06/30 06:53:29;;;;;;;5.28;2.42;;;17.40;99.90;;;;;;5038443;28;20218;-77
2023/06/30 06:55:58;;;;;;;6.68;2.20;;;17.20;99.90;;;;;;5029473;28;20218;-77
2023/06/30 06:58:28;;;;;;;4.47;2.97;;;17.30;99.90;;;;;;5031511;28;20211;-77
2023/06/30 07:00:57;;;;;;;6.50;3.30;;;17.40;99.90;;;;;;5015591;28;20202;-76
2023/06/30 07:03:26;;;;;;;8.30;3.42;;;17.40;99.90;;;;;;5027799;28;20223;-77
2023/06/30 07:05:55;;;;;;;6.07;4.35;;;17.30;99.90;;;;;;5012342;28;20176;-77
2023/06/30 07:08:22;;;;;;;8.93;4.93;;;17.50;99.90;;;;;;5012897;28;20227;-77
2023/06/30 07:11:08;;;;;;;7.10;4.78;;;17.50;99.90;;;;;;5026540;28;20207;-77
2023/06/30 07:13:41;;;;;;;7.55;4.35;;;17.50;99.90;;;;;;5038853;28;20219;-77
2023/06/30 07:16:11;;;;;;;8.70;3.92;;;17.60;99.90;;;;;;5009498;28;20211;-77
2023/06/30 07:18:38;;;;;;;6.93;3.97;;;17.80;99.90;;;;;;5030563;28;20778;-77
2023/06/30 07:21:06;;;;;;;4.63;3.35;;;17.90;99.90;;;;;;5032842;28;20214;-77
2023/06/30 07:23:33;;;;;;;5.22;2.90;;;17.90;99.90;;;;;;5010758;28;20222;-77
2023/06/30 07:26:17;;;;;;;4.88;2.78;;;17.80;99.90;;;;;;5027357;28;20563;-78
2023/06/30 07:28:47;;;;;;;7.25;3.20;;;17.90;99.90;;;;;;5034264;28;20202;-77
2023/06/30 07:31:15;;;;;;;4.70;1.98;;;17.70;99.90;;;;;;5022578;28;20211;-77
2023/06/30 07:33:44;;;;;;;4.88;2.13;;;17.70;99.90;;;;;;5026988;28;20226;-77
2023/06/30 07:36:11;;;;;;;4.30;2.22;;;17.70;99.90;;;;;;5011790;28;20207;-77
2023/06/30 07:38:38;;;;;;;4.10;1.75;;;17.70;99.90;;;;;;5030399;28;20203;-78
2023/06/30 07:41:06;;;;;;;4.20;2.10;;;17.60;99.90;;;;;;5028428;28;20198;-77
2023/06/30 07:43:33;;;;;;;5.75;1.98;;;17.80;99.90;;;;;;5028130;28;20701;-77
2023/06/30 07:46:01;;;;;;;3.60;1.77;;;17.80;99.90;;;;;;5005751;28;20211;-76
2023/06/30 07:48:29;;;;;;;4.07;1.60;;;17.90;99.90;;;;;;5018876;28;20196;-77
2023/06/30 07:50:57;;;;;;;4.20;1.58;;;18.10;99.90;;;;;;5029922;28;20211;-77
2023/06/30 07:53:24;;;;;;;2.35;1.85;;;18.00;99.90;;;;;;5032214;28;20585;-77
2023/06/30 07:55:51;;;;;;;4.82;1.65;;;17.90;99.90;;;;;;5025498;28;20209;-77
2023/06/30 07:58:19;;;;;;;3.30;2.00;;;18.00;99.90;;;;;;5010360;28;20199;-78
2023/06/30 08:00:46;;;;;;;4.45;1.60;;;18.10;99.90;;;;;;5026917;28;20195;-77
2023/06/30 08:03:14;;;;;;;5.25;1.77;;;18.40;99.90;;;;;;5007114;28;20223;-77
2023/06/30 08:05:42;;;;;;;4.00;1.67;;;18.40;99.90;;;;;;5007390;28;20199;-77
2023/06/30 08:08:10;;;;;;;3.22;1.35;;;18.30;99.90;;;;;;5027475;28;20202;-77
2023/06/30 08:10:37;;;;;;;2.42;1.40;;;18.00;99.90;;;;;;5030582;28;20227;-77
2023/06/30 08:13:09;;;;;;;2.22;1.30;;;17.90;99.90;;;;;;5030035;28;20223;-77
2023/06/30 08:15:37;;;;;;;3.55;1.65;;;18.00;99.90;;;;;;5028955;28;20209;-77
2023/06/30 08:18:04;;;;;;;4.25;1.92;;;18.10;99.90;;;;;;5020903;28;20661;-77
2023/06/30 08:20:32;;;;;;;2.65;1.40;;;18.20;99.90;;;;;;5033527;28;20183;-77
2023/06/30 08:23:10;;;;;;;3.15;1.80;;;18.30;99.90;;;;;;5020221;28;20233;-77
2023/06/30 08:25:37;;;;;;;2.95;1.48;;;18.50;99.90;;;;;;5031394;28;20218;-77
2023/06/30 08:28:05;;;;;;;4.63;1.65;;;18.70;99.90;;;;;;5031143;28;20206;-77
2023/06/30 08:30:32;;;;;;;3.75;1.42;;;18.70;99.90;;;;;;5031521;28;20218;-77
2023/06/30 08:33:00;;;;;;;2.50;1.42;;;18.80;99.90;;;;;;5031100;28;20219;-78
2023/06/30 08:35:27;;;;;;;2.97;1.58;;;18.80;99.90;;;;;;5030823;28;20198;-77
2023/06/30 08:37:54;;;;;;;2.22;1.25;;;18.60;99.90;;;;;;5035993;28;20199;-77
2023/06/30 08:40:29;;;;;;;5.15;1.75;;;18.80;99.90;;;;;;5030483;28;20205;-78
2023/06/30 08:42:59;;;;;;;3.22;2.00;;;18.70;99.90;;;;;;5032486;28;20225;-77
2023/06/30 08:45:27;;;;;;;2.38;1.70;;;18.90;99.90;;;;;;5029932;28;20199;-78
2023/06/30 08:47:57;;;;;;;4.30;1.50;;;19.10;99.90;;;;;;5017451;28;20195;-77
2023/06/30 08:50:25;;;;;;;5.15;1.85;;;18.90;99.90;;;;;;5027827;28;20195;-77
2023/06/30 08:52:54;;;;;;;4.13;1.90;;;19.00;99.90;;;;;;5020189;28;20238;-77
2023/06/30 08:55:21;;;;;;;4.90;1.92;;;19.00;99.90;;;;;;5032873;28;20203;-77
2023/06/30 08:57:50;;;;;;;4.68;1.70;;;19.10;99.90;;;;;;5028019;28;20648;-77
2023/06/30 09:00:19;;;;;;;2.75;1.30;;;19.10;99.90;;;;;;5020459;28;20199;-77
2023/06/30 09:02:48;;;;;;;4.13;1.17;;;19.10;99.90;;;;;;5035552;28;20229;-77
2023/06/30 09:05:16;;;;;;;4.20;1.40;;;19.00;99.40;;;;;;5008604;28;20203;-77
2023/06/30 09:07:47;;;;;;;2.95;1.50;;;19.20;99.60;;;;;;5007456;28;20230;-78
2023/06/30 09:10:37;;;;;;;3.08;1.55;;;19.30;99.80;;;;;;5005974;28;20657;-78
2023/06/30 09:13:07;;;;;;;2.33;1.42;;;19.40;99.90;;;;;;5011347;28;20226;-78
2023/06/30 09:15:34;;;;;;;4.10;1.35;;;19.50;99.90;;;;;;5010097;28;20196;-77
2023/06/30 09:18:02;;;;;;;4.47;1.42;;;19.40;99.90;;;;;;5037303;28;20213;-81
2023/06/30 09:20:30;;;;;;;4.22;1.55;;;19.40;99.90;;;;;;5036760;28;20198;-79
2023/06/30 09:23:04;;;;;;;2.85;1.10;;;19.40;99.90;;;;;;5035698;28;20598;-78
2023/06/30 09:25:40;;;;;;;3.88;1.40;;;19.50;99.60;;;;;;5035299;28;20195;-79
2023/06/30 09:28:12;;;;;;;3.67;1.60;;;19.50;99.50;;;;;;5042448;28;20202;-79
2023/06/30 09:30:41;;;;;;;2.15;1.50;;;19.30;98.40;;;;;;5033786;28;20885;-79
2023/06/30 09:33:09;;;;;;;2.85;1.40;;;19.50;98.70;;;;;;5041784;28;20227;-75
2023/06/30 09:35:38;;;;;;;3.53;1.60;;;19.30;99.20;;;;;;5036448;28;20211;-81
2023/06/30 09:38:12;;;;;;;2.25;1.30;;;19.50;99.10;;;;;;5034612;28;20206;-81
2023/06/30 09:40:43;;;;;;;3.55;1.20;;;19.30;98.30;;;;;;5035830;28;20209;-81
2023/06/30 09:43:17;;;;;;;5.85;1.75;;;19.40;99.20;;;;;;5037708;28;20223;-80
2023/06/30 09:45:45;;;;;;;1.90;1.23;;;19.60;98.80;;;;;;5013974;28;20210;-79
2023/06/30 09:48:14;;;;;;;3.85;1.70;;;19.50;99.00;;;;;;5024776;28;20202;-79
2023/06/30 09:50:42;;;;;;;2.28;1.60;;;19.60;98.90;;;;;;5019008;28;20199;-79
2023/06/30 09:53:10;;;;;;;2.97;1.27;;;19.80;99.20;;;;;;5031353;28;20226;-80
2023/06/30 09:55:48;;;;;;;1.27;1.10;;;19.60;97.40;;;;;;5030863;28;20213;-80
2023/06/30 09:58:18;;;;;;;2.90;1.30;;;19.60;96.50;;;;;;5028849;28;20218;-80
2023/06/30 10:00:46;;;;;;;2.50;1.13;;;19.70;97.40;;;;;;5023460;28;20206;-78
2023/06/30 10:03:16;;;;;;;2.00;1.30;;;19.50;97.10;;;;;;5035781;28;20219;-79
2023/06/30 10:05:44;;;;;;;2.63;1.13;;;19.60;97.40;;;;;;5019307;28;20196;-79
2023/06/30 10:08:13;;;;;;;3.58;1.70;;;19.60;97.20;;;;;;5026285;28;20198;-78
2023/06/30 10:10:45;;;;;;;3.88;1.30;;;19.80;97.30;;;;;;5008512;28;20213;-79
2023/06/30 10:13:14;;;;;;;3.53;1.25;;;19.70;96.40;;;;;;5030833;28;20223;-79
2023/06/30 10:15:44;;;;;;;2.00;1.25;;;19.80;95.30;;;;;;5012979;28;20195;-79
2023/06/30 10:18:13;;;;;;;3.15;1.38;;;20.10;95.20;;;;;;5033221;28;20195;-79
2023/06/30 10:20:41;;;;;;;1.80;1.15;;;20.10;95.20;;;;;;5030975;28;20202;-79
2023/06/30 10:23:09;;;;;;;2.17;1.55;;;19.80;93.80;;;;;;5014303;28;20227;-79
2023/06/30 10:25:39;;;;;;;4.43;1.40;;;19.80;94.20;;;;;;5013358;28;20210;-78
2023/06/30 10:28:07;;;;;;;2.42;1.13;;;19.80;94.40;;;;;;5030656;28;20242;-78
2023/06/30 10:30:35;;;;;;;4.32;1.10;;;19.80;95.30;;;;;;5028828;28;20210;-78
2023/06/30 10:33:04;;;;;;;3.00;1.52;;;20.10;95.30;;;;;;5028524;28;20222;-79
2023/06/30 10:35:33;;;;;;;2.75;1.05;;;20.10;94.10;;;;;;5032359;28;20195;-80
2023/06/30 10:38:00;;;;;;;3.35;1.00;;;20.30;93.20;;;;;;5029465;28;20212;-79
2023/06/30 10:40:29;;;;;;;3.17;1.10;;;20.60;92.90;;;;;;5033817;28;20203;-79
2023/06/30 10:42:58;;;;;;;2.38;1.23;;;20.50;91.20;;;;;;5033004;28;20627;-79
2023/06/30 10:45:35;;;;;;;2.97;1.20;;;20.70;92.00;;;;;;5031378;28;20198;-79
2023/06/30 10:48:10;;;;;;;4.43;1.55;;;20.90;92.50;;;;;;5033259;28;20210;-79
2023/06/30 10:50:41;;;;;;;2.42;1.08;;;20.90;92.20;;;;;;5017254;28;20213;-79
2023/06/30 10:53:17;;;;;;;2.60;1.50;;;21.00;92.80;;;;;;5016719;28;20241;-80
2023/06/30 10:55:56;;;;;;;2.88;1.13;;;21.10;92.40;;;;;;5027473;28;20207;-79
2023/06/30 10:58:25;;;;;;;5.03;1.50;;;21.10;91.40;;;;;;5035238;28;20190;-79
2023/06/30 11:01:07;;;;;;;2.30;1.25;;;21.00;91.30;;;;;;5027842;28;20279;-79
2023/06/30 11:04:18;;;;;;;3.53;1.30;;;20.90;91.30;;;;;;5026224;28;20218;-79
2023/06/30 11:07:02;;;;;;;3.20;1.40;;;21.20;91.50;;;;;;5011840;28;20206;-80
2023/06/30 11:10:02;;;;;;;3.50;1.10;;;21.20;91.90;;;;;;5031484;28;20206;-79
2023/06/30 11:12:44;;;;;;;1.38;1.10;;;21.00;91.10;;;;;;5027914;28;20222;-79
2023/06/30 11:15:25;;;;;;;3.35;1.50;;;20.90;91.10;;;;;;4997277;28;20204;-80
2023/06/30 11:18:01;;;;;;;3.55;1.25;;;21.40;91.40;;;;;;5017861;28;20203;-79
2023/06/30 11:20:29;;;;;;;2.40;1.40;;;21.40;90.90;;;;;;5019506;28;20215;-80
2023/06/30 11:23:00;;;;;;;2.65;1.35;;;21.00;90.90;;;;;;4984955;28;20221;-79
2023/06/30 11:25:29;;;;;;;4.45;1.50;;;21.20;91.60;;;;;;5023432;28;20218;-79
2023/06/30 11:28:02;;;;;;;2.22;1.75;;;20.90;91.50;;;;;;5034040;28;20199;-80
2023/06/30 11:30:34;;;;;;;1.88;1.30;;;21.20;91.40;;;;;;5029026;28;20229;-79
2023/06/30 11:33:02;;;;;;;2.33;1.20;;;21.30;90.50;;;;;;5029826;28;20223;-79
2023/06/30 11:35:30;;;;;;;1.60;1.25;;;21.20;90.80;;;;;;5018458;28;20555;-79
2023/06/30 11:37:58;;;;;;;2.50;1.27;;;21.20;90.60;;;;;;5032471;28;20661;-80
2023/06/30 11:40:27;;;;;;;3.42;1.20;;;21.40;90.90;;;;;;5030458;28;20210;-79
2023/06/30 11:42:55;;;;;;;1.88;1.27;;;21.30;90.50;;;;;;5035841;28;20233;-79
2023/06/30 11:45:27;;;;;;;3.10;1.25;;;21.10;90.30;;;;;;5028881;28;20212;-79
2023/06/30 11:47:56;;;;;;;5.13;1.77;;;21.30;91.20;;;;;;5013129;28;20195;-80
2023/06/30 11:50:25;;;;;;;2.67;1.20;;;21.40;90.10;;;;;;5025194;28;20913;-80
2023/06/30 11:52:53;;;;;;;1.17;1.08;;;21.50;90.00;;;;;;5025390;28;20227;-78
2023/06/30 11:55:23;;;;;;;2.92;1.13;;;21.10;90.00;;;;;;5012598;28;20222;-78
2023/06/30 11:57:51;;;;;;;2.65;1.40;;;21.10;90.30;;;;;;5023320;28;20202;-81
2023/06/30 12:00:21;;;;;;;1.88;1.20;;;21.00;90.70;;;;;;5031825;28;20210;-80
2023/06/30 12:02:58;;;;;;;1.83;1.30;;;21.00;90.60;;;;;;5035635;28;20220;-81
2023/06/30 12:05:28;;;;;;;2.60;1.27;;;21.00;91.20;;;;;;5026414;28;20205;-80
2023/06/30 12:07:56;;;;;;;1.63;1.23;;;20.90;90.80;;;;;;5030534;28;20201;-81
2023/06/30 12:10:39;;;;;;;2.35;1.20;;;20.70;90.70;;;;;;5009742;28;20203;-80
2023/06/30 12:13:08;;;;;;;3.47;1.67;;;20.60;91.00;;;;;;5008015;28;20218;-81
2023/06/30 12:15:36;;;;;;;2.83;1.50;;;20.80;90.40;;;;;;5031312;28;20203;-81
2023/06/30 12:18:09;;;;;;;2.67;1.50;;;20.80;90.70;;;;;;5036297;28;20206;-80
2023/06/30 12:20:40;;;;;;;2.75;1.33;;;21.00;90.90;;;;;;5009515;28;20452;-79
2023/06/30 12:23:08;;;;;;;3.58;1.65;;;21.30;91.10;;;;;;5030901;28;20218;-79
2023/06/30 12:25:38;;;;;;;5.00;1.58;;;21.40;90.40;;;;;;5025197;28;20198;-80
2023/06/30 12:28:05;;;;;;;3.42;1.60;;;21.10;90.70;;;;;;5013643;28;20199;-80
2023/06/30 12:30:33;;;;;;;4.70;1.20;;;20.90;91.00;;;;;;5034866;28;20210;-79
2023/06/30 12:33:02;;;;;;;2.42;1.30;;;21.10;91.40;;;;;;5018199;28;20241;-80
2023/06/30 12:35:30;;;;;;;2.08;1.33;;;21.00;91.00;;;;;;5031536;28;20295;-79
2023/06/30 12:37:59;;;;;;;3.15;1.70;;;21.10;91.10;;;;;;5046446;28;20205;-80
2023/06/30 12:40:29;;;;;;;3.55;1.20;;;21.00;91.00;;;;;;5016236;28;20221;-79
2023/06/30 12:42:58;;;;;;;3.05;1.48;;;21.10;90.70;;;;;;5036199;28;20226;-79
2023/06/30 12:45:25;;;;;;;2.13;1.50;;;21.00;91.30;;;;;;5041961;28;20563;-77
2023/06/30 12:47:53;;;;;;;4.63;1.80;;;21.50;90.60;;;;;;5021259;28;20202;-79
2023/06/30 12:50:20;;;;;;;2.60;1.48;;;22.30;91.00;;;;;;5033253;28;20271;-79
2023/06/30 12:52:48;;;;;;;4.28;1.92;;;22.00;88.20;;;;;;5011860;28;20214;-79
2023/06/30 12:55:15;;;;;;;3.05;1.48;;;22.30;89.70;;;;;;5035998;28;20195;-79
2023/06/30 12:57:43;;;;;;;2.17;1.77;;;22.60;89.60;;;;;;5017553;28;20199;-79
2023/06/30 13:00:13;;;;;;;2.40;1.50;;;22.20;87.50;;;;;;5033450;28;21511;-79